Time;durP1;ratioP1;P1;durP2;ratioP2;P2;SDS_P1;SDS_P2;PMS_P1;PMS_P2;Temp;Humidity;BMP_temperature;BMP_pressure;BME280_temperature;BME280_humidity;BME280_pressure;Samples;Min_cycle;Max_cycle;Signal;HPM_P1;HPM_P2
2023/03/18 00:01:02;;;;;;;17.30;9.60;;;;;;;9.89;43.74;100706.38;5095201;28;20111;-59
2023/03/18 00:03:33;;;;;;;21.65;10.70;;;;;;;9.96;43.69;100704.56;5093384;28;20024;-58
2023/03/18 00:06:12;;;;;;;16.92;9.30;;;;;;;9.97;43.61;100708.91;5081354;28;20453;-58
2023/03/18 00:08:38;;;;;;;18.75;10.40;;;;;;;9.98;43.72;100705.41;5091264;28;20475;-59
2023/03/18 00:11:05;;;;;;;17.45;10.02;;;;;;;9.94;43.81;100708.97;5094716;28;20044;-59
2023/03/18 00:13:32;;;;;;;16.88;9.70;;;;;;;9.97;43.81;100695.78;5095027;28;20039;-59
2023/03/18 00:15:59;;;;;;;22.55;11.90;;;;;;;9.91;43.73;100699.38;5094996;28;20111;-59
2023/03/18 00:18:25;;;;;;;18.00;10.15;;;;;;;9.90;43.99;100699.41;5092772;28;20029;-59
2023/03/18 00:20:52;;;;;;;17.52;9.52;;;;;;;9.94;43.86;100706.34;5077525;28;20115;-58
2023/03/18 00:23:17;;;;;;;18.33;9.63;;;;;;;9.91;43.84;100704.63;5077116;28;20028;-59
2023/03/18 00:25:46;;;;;;;20.20;10.75;;;;;;;9.92;43.79;100705.50;5093780;28;20036;-59
2023/03/18 00:28:11;;;;;;;19.55;10.63;;;;;;;9.83;44.01;100690.75;5094684;28;20024;-59
2023/03/18 00:30:38;;;;;;;18.35;9.82;;;;;;;9.76;43.96;100683.84;5094057;28;20078;-58
2023/03/18 00:33:05;;;;;;;16.45;9.82;;;;;;;9.77;44.10;100693.44;5085003;28;20032;-58
2023/03/18 00:35:30;;;;;;;19.23;9.90;;;;;;;9.73;44.22;100689.13;5085984;28;20379;-59
2023/03/18 00:38:02;;;;;;;18.08;9.30;;;;;;;9.69;44.13;100684.81;5094922;28;20077;-59
2023/03/18 00:40:41;;;;;;;17.50;9.05;;;;;;;9.69;44.03;100690.03;5093308;28;20503;-59
2023/03/18 00:43:08;;;;;;;16.45;9.60;;;;;;;9.63;43.96;100673.50;5091540;28;20470;-59
2023/03/18 00:45:39;;;;;;;20.83;10.43;;;;;;;9.46;44.22;100672.88;5089659;28;20048;-59
2023/03/18 00:48:06;;;;;;;15.68;9.35;;;;;;;9.52;44.29;100685.88;5091752;28;20467;-58
2023/03/18 00:50:33;;;;;;;17.65;9.85;;;;;;;9.44;44.41;100677.25;5093353;28;20035;-58
2023/03/18 00:52:59;;;;;;;20.13;9.70;;;;;;;9.45;44.64;100683.34;5093656;28;20028;-60
2023/03/18 00:55:26;;;;;;;19.40;9.25;;;;;;;9.38;44.72;100687.81;5075914;28;20054;-59
2023/03/18 00:57:52;;;;;;;16.52;9.55;;;;;;;9.41;44.64;100673.78;5094306;28;20040;-58
2023/03/18 01:00:18;;;;;;;17.70;9.40;;;;;;;9.39;44.62;100673.81;5087615;28;20048;-57
2023/03/18 01:02:44;;;;;;;19.83;9.77;;;;;;;9.33;44.70;100673.88;5078548;28;20096;-59
2023/03/18 01:05:13;;;;;;;16.55;8.90;;;;;;;9.31;44.53;100675.66;5090924;28;20118;-58
2023/03/18 01:07:38;;;;;;;15.45;9.20;;;;;;;9.35;44.73;100677.38;5093708;28;20043;-59
2023/03/18 01:10:05;;;;;;;17.02;9.80;;;;;;;9.35;44.69;100677.38;5067542;28;20032;-58
2023/03/18 01:12:32;;;;;;;14.80;8.70;;;;;;;9.29;44.98;100670.41;5077809;28;20093;-58
2023/03/18 01:14:58;;;;;;;16.85;8.70;;;;;;;9.25;45.01;100665.22;5093751;28;20036;-58
2023/03/18 01:17:24;;;;;;;16.50;9.52;;;;;;;9.21;45.03;100664.41;5091286;28;20084;-58
2023/03/18 01:19:50;;;;;;;17.15;9.13;;;;;;;9.21;45.06;100658.28;5075940;28;20380;-58
2023/03/18 01:22:15;;;;;;;15.32;9.25;;;;;;;9.22;45.00;100666.16;5093886;28;20109;-58
2023/03/18 01:24:41;;;;;;;16.63;9.15;;;;;;;9.19;44.95;100665.31;5092956;28;20028;-59
2023/03/18 01:27:07;;;;;;;16.25;9.18;;;;;;;9.20;45.01;100656.56;5091756;28;20038;-57
2023/03/18 01:29:34;;;;;;;17.67;9.70;;;;;;;9.23;44.96;100656.53;5079318;28;20064;-58
2023/03/18 01:32:01;;;;;;;16.33;9.45;;;;;;;9.19;44.97;100653.06;5086053;28;20058;-58
2023/03/18 01:34:27;;;;;;;14.05;8.35;;;;;;;9.24;44.77;100660.88;5093452;28;20028;-59
2023/03/18 01:36:53;;;;;;;15.00;8.90;;;;;;;9.22;45.00;100660.06;5092745;28;20028;-58
2023/03/18 01:39:18;;;;;;;19.60;9.35;;;;;;;9.23;44.89;100657.41;5072662;28;20044;-58
2023/03/18 01:41:44;;;;;;;14.43;8.27;;;;;;;9.20;44.84;100654.81;5092837;28;20383;-58
2023/03/18 01:44:23;;;;;;;15.00;8.27;;;;;;;9.12;45.05;100659.28;5092333;28;20048;-59
2023/03/18 01:46:50;;;;;;;15.55;8.30;;;;;;;9.20;45.03;100661.81;5094047;28;20507;-58
2023/03/18 01:49:36;;;;;;;15.60;8.77;;;;;;;9.17;45.06;100656.59;5090974;28;20060;-58
2023/03/18 01:52:08;;;;;;;15.15;8.90;;;;;;;9.11;45.16;100642.69;5092776;28;20046;-58
2023/03/18 01:54:46;;;;;;;14.32;8.68;;;;;;;9.13;44.97;100656.63;5093597;28;20032;-59
2023/03/18 01:57:16;;;;;;;14.85;8.80;;;;;;;9.10;45.18;100656.69;5082323;28;20032;-59
2023/03/18 01:59:43;;;;;;;16.60;8.85;;;;;;;9.10;45.17;100655.81;5084284;28;20047;-58
2023/03/18 02:02:14;;;;;;;17.02;8.85;;;;;;;9.08;45.13;100654.94;5084122;28;20954;-59
2023/03/18 02:04:56;;;;;;;16.30;9.23;;;;;;;9.00;45.19;100657.66;5090626;28;20477;-59
2023/03/18 02:07:28;;;;;;;13.77;7.95;;;;;;;9.03;45.33;100657.63;5093246;28;20077;-59
2023/03/18 02:09:57;;;;;;;15.00;8.63;;;;;;;9.04;45.23;100659.34;5091907;28;20210;-57
2023/03/18 02:12:30;;;;;;;15.07;8.23;;;;;;;9.00;45.26;100648.94;5112610;28;20031;-58
2023/03/18 02:14:57;;;;;;;14.93;8.23;;;;;;;9.00;45.42;100652.41;5093175;28;20122;-58
2023/03/18 02:17:26;;;;;;;13.52;7.95;;;;;;;8.94;45.42;100643.75;5092281;28;20538;-57
2023/03/18 02:20:04;;;;;;;12.55;7.53;;;;;;;8.93;45.40;100636.75;5092584;28;20032;-58
2023/03/18 02:22:34;;;;;;;12.77;7.93;;;;;;;8.78;45.71;100629.97;5089795;28;20104;-58
2023/03/18 02:25:18;;;;;;;16.20;8.38;;;;;;;8.83;45.60;100630.75;5083970;28;20994;-57
2023/03/18 02:27:49;;;;;;;13.45;7.70;;;;;;;8.85;45.57;100627.22;5088193;28;20071;-58
2023/03/18 02:30:21;;;;;;;16.23;8.70;;;;;;;8.78;45.62;100624.72;5094961;28;20031;-58
2023/03/18 02:32:49;;;;;;;14.23;8.00;;;;;;;8.76;45.75;100621.22;5096423;28;20028;-58
2023/03/18 02:35:15;;;;;;;13.90;8.25;;;;;;;8.77;45.78;100634.28;5095662;28;20044;-59
2023/03/18 02:37:40;;;;;;;16.33;8.20;;;;;;;8.78;45.75;100632.56;5077675;28;20062;-57
2023/03/18 02:40:24;;;;;;;16.35;8.43;;;;;;;8.70;45.72;100629.13;5075198;28;20053;-58
2023/03/18 02:42:50;;;;;;;13.98;8.70;;;;;;;8.66;45.92;100625.72;5077165;28;20098;-58
2023/03/18 02:45:29;;;;;;;14.73;8.38;;;;;;;8.61;46.14;100632.72;5092036;28;20480;-59
2023/03/18 02:47:58;;;;;;;18.20;8.50;;;;;;;8.64;45.83;100638.78;5096957;28;20036;-59
2023/03/18 02:50:24;;;;;;;13.73;8.15;;;;;;;8.68;45.77;100638.78;5095059;28;20113;-59
2023/03/18 02:52:50;;;;;;;17.00;9.25;;;;;;;8.68;45.68;100638.78;5084827;28;20482;-57
2023/03/18 02:55:15;;;;;;;16.67;9.05;;;;;;;8.56;46.02;100648.47;5083872;28;20043;-59
2023/03/18 02:57:41;;;;;;;17.13;8.70;;;;;;;8.63;45.86;100644.06;5096702;28;20032;-58
2023/03/18 03:00:07;;;;;;;15.35;8.35;;;;;;;8.68;45.64;100638.78;5095630;28;20162;-59
2023/03/18 03:02:33;;;;;;;15.27;9.02;;;;;;;8.69;45.64;100637.88;5096497;28;20044;-58
2023/03/18 03:04:59;;;;;;;16.13;9.02;;;;;;;8.71;45.56;100642.25;5096617;28;20032;-59
2023/03/18 03:07:26;;;;;;;16.35;9.00;;;;;;;8.64;45.58;100635.31;5095472;28;20040;-59
2023/03/18 03:09:52;;;;;;;13.77;8.52;;;;;;;8.67;45.80;100634.44;5096346;28;20118;-60
2023/03/18 03:12:18;;;;;;;12.15;7.82;;;;;;;8.61;45.62;100636.19;5077031;28;20127;-58
2023/03/18 03:14:43;;;;;;;14.20;7.90;;;;;;;8.63;45.92;100639.69;5096290;28;20035;-59
2023/03/18 03:17:09;;;;;;;15.27;8.63;;;;;;;8.61;45.80;100636.19;5076957;28;20420;-58
2023/03/18 03:19:35;;;;;;;13.63;7.63;;;;;;;8.68;45.70;100630.91;5092387;28;20040;-58
2023/03/18 03:22:00;;;;;;;14.98;7.72;;;;;;;8.68;45.75;100638.78;5084712;28;20524;-58
2023/03/18 03:24:26;;;;;;;17.75;8.43;;;;;;;8.60;45.85;100634.47;5089722;28;20115;-59
2023/03/18 03:26:51;;;;;;;14.95;7.95;;;;;;;8.69;45.66;100633.50;5095313;28;20467;-59
2023/03/18 03:29:17;;;;;;;14.20;8.38;;;;;;;8.73;45.50;100637.84;5093835;28;20058;-59
2023/03/18 03:31:42;;;;;;;15.15;9.20;;;;;;;8.73;45.55;100623.88;5093350;28;20032;-58
2023/03/18 03:34:08;;;;;;;12.90;7.45;;;;;;;8.76;45.48;100627.34;5093795;28;20040;-58
2023/03/18 03:36:33;;;;;;;13.57;8.30;;;;;;;8.82;45.29;100619.41;5093926;28;20042;-59
2023/03/18 03:38:59;;;;;;;14.05;7.35;;;;;;;8.84;45.21;100622.88;5093882;28;20567;-58
2023/03/18 03:41:24;;;;;;;14.13;8.15;;;;;;;8.83;45.32;100618.53;5095419;28;20050;-59
2023/03/18 03:43:50;;;;;;;13.57;8.35;;;;;;;8.82;45.14;100619.41;5094577;28;20353;-59
2023/03/18 03:46:16;;;;;;;13.00;8.35;;;;;;;8.76;45.38;100610.75;5092003;28;20414;-58
2023/03/18 03:48:41;;;;;;;15.20;7.78;;;;;;;8.78;45.34;100611.63;5085834;28;20047;-59
2023/03/18 03:51:07;;;;;;;14.68;8.07;;;;;;;8.72;45.67;100607.28;5082024;28;20048;-59
2023/03/18 03:53:33;;;;;;;14.60;8.38;;;;;;;8.75;45.50;100609.03;5094452;28;20055;-59
2023/03/18 03:55:58;;;;;;;13.52;8.18;;;;;;;8.72;45.50;100601.19;5094717;28;20093;-60
2023/03/18 03:58:24;;;;;;;13.82;8.00;;;;;;;8.71;45.52;100605.56;5093846;28;20543;-59
2023/03/18 04:00:51;;;;;;;13.95;7.32;;;;;;;8.70;45.48;100603.84;5085961;28;20415;-59
2023/03/18 04:03:17;;;;;;;15.65;8.27;;;;;;;8.72;45.52;100602.06;5093673;28;20116;-58
2023/03/18 04:05:42;;;;;;;14.15;7.50;;;;;;;8.72;45.46;100604.66;5093986;28;20035;-59
2023/03/18 04:08:08;;;;;;;13.73;7.75;;;;;;;8.63;45.65;100600.41;5093730;28;20128;-58
2023/03/18 04:10:35;;;;;;;14.77;8.48;;;;;;;8.69;45.53;100609.06;5094338;28;20387;-59
2023/03/18 04:13:02;;;;;;;15.35;7.50;;;;;;;8.71;45.55;100599.47;5093583;28;20502;-58
2023/03/18 04:15:28;;;;;;;13.77;7.53;;;;;;;8.69;45.56;100594.22;5094955;28;20067;-57
2023/03/18 04:17:53;;;;;;;12.90;7.90;;;;;;;8.69;45.55;100585.50;5081506;28;20055;-58
2023/03/18 04:20:20;;;;;;;15.48;8.25;;;;;;;8.70;45.31;100598.59;5090501;28;20087;-58
2023/03/18 04:22:45;;;;;;;15.35;8.35;;;;;;;8.73;45.36;100590.69;5093554;28;20031;-58
2023/03/18 04:25:13;;;;;;;15.80;8.13;;;;;;;8.73;45.52;100592.44;5094100;28;20445;-58
2023/03/18 04:27:39;;;;;;;13.75;7.93;;;;;;;8.72;45.43;100591.56;5073451;28;20078;-60
2023/03/18 04:30:08;;;;;;;14.63;7.88;;;;;;;8.70;45.47;100589.84;5073175;28;20029;-58
2023/03/18 04:32:33;;;;;;;15.80;7.85;;;;;;;8.72;45.40;100585.47;5079514;28;20066;-59
2023/03/18 04:34:59;;;;;;;12.48;7.65;;;;;;;8.74;45.47;100594.19;5095103;28;20032;-59
2023/03/18 04:37:24;;;;;;;13.35;7.70;;;;;;;8.72;45.50;100596.81;5095273;28;20486;-59
2023/03/18 04:39:50;;;;;;;14.00;8.48;;;;;;;8.70;45.54;100597.69;5092228;28;20048;-59
2023/03/18 04:42:16;;;;;;;14.18;7.93;;;;;;;8.71;45.37;100588.97;5094685;28;20051;-59
2023/03/18 04:44:42;;;;;;;16.27;8.80;;;;;;;8.72;45.58;100590.72;5068264;28;20028;-58
2023/03/18 04:47:08;;;;;;;15.57;8.38;;;;;;;8.62;45.74;100596.06;5082399;28;20039;-58
2023/03/18 04:49:34;;;;;;;17.27;8.52;;;;;;;8.56;45.76;100588.25;5093283;28;20043;-58
2023/03/18 04:52:00;;;;;;;16.23;8.23;;;;;;;8.58;45.74;100591.72;5093435;28;20486;-58
2023/03/18 04:54:27;;;;;;;14.20;7.35;;;;;;;8.58;45.66;100589.09;5093581;28;20062;-58
2023/03/18 04:56:53;;;;;;;15.23;8.27;;;;;;;8.46;45.94;100597.09;5094315;28;20050;-58
2023/03/18 04:59:18;;;;;;;16.23;8.38;;;;;;;8.59;45.62;100587.34;5093458;28;20536;-58
2023/03/18 05:01:44;;;;;;;16.10;8.45;;;;;;;8.53;45.73;100588.25;5078519;28;20037;-57
2023/03/18 05:04:09;;;;;;;13.43;7.88;;;;;;;8.53;45.71;100590.88;5074088;28;20387;-58
2023/03/18 05:06:36;;;;;;;15.95;8.85;;;;;;;8.54;45.81;100599.63;5072604;28;20024;-58
2023/03/18 05:09:04;;;;;;;16.17;8.15;;;;;;;8.61;45.80;100590.81;5089724;28;20028;-58
2023/03/18 05:11:30;;;;;;;12.95;7.57;;;;;;;8.63;45.65;100595.16;5091737;28;20039;-58
2023/03/18 05:13:56;;;;;;;13.82;8.07;;;;;;;8.73;45.40;100593.28;5082145;28;20509;-58
2023/03/18 05:16:22;;;;;;;17.08;8.27;;;;;;;8.84;45.26;100580.09;5088981;28;20036;-58
2023/03/18 05:18:47;;;;;;;14.27;8.20;;;;;;;8.91;45.15;100589.63;5093744;28;20533;-58
2023/03/18 05:21:13;;;;;;;14.85;7.90;;;;;;;8.91;45.06;100594.88;5092088;28;20130;-58
2023/03/18 05:23:39;;;;;;;15.15;7.50;;;;;;;8.96;45.23;100593.03;5093890;28;20028;-58
2023/03/18 05:26:04;;;;;;;15.27;8.73;;;;;;;9.01;44.98;100586.00;5093708;28;20043;-58
2023/03/18 05:28:31;;;;;;;15.68;8.02;;;;;;;9.05;44.93;100590.31;5090670;28;20044;-58
2023/03/18 05:30:57;;;;;;;12.35;7.68;;;;;;;9.13;44.72;100598.09;5090055;28;20509;-58
2023/03/18 05:33:23;;;;;;;15.02;8.18;;;;;;;9.04;45.03;100587.72;5059768;28;20044;-58
2023/03/18 05:35:48;;;;;;;14.73;8.25;;;;;;;9.07;45.12;100579.81;5075789;28;20032;-58
2023/03/18 05:38:15;;;;;;;14.75;8.10;;;;;;;9.08;45.00;100585.03;5074173;28;20144;-58
2023/03/18 05:40:40;;;;;;;14.48;8.30;;;;;;;9.15;44.86;100574.50;5065397;28;20063;-58
2023/03/18 05:43:05;;;;;;;15.20;8.27;;;;;;;9.11;44.83;100568.41;5078934;28;20039;-58
2023/03/18 05:45:31;;;;;;;15.75;8.27;;;;;;;9.12;44.93;100575.38;5090516;28;20063;-59
2023/03/18 05:47:57;;;;;;;13.15;7.97;;;;;;;9.29;44.52;100583.03;5068962;28;20028;-58
2023/03/18 05:50:29;;;;;;;15.43;9.10;;;;;;;9.26;44.38;100588.34;5089492;28;20039;-57
2023/03/18 05:52:55;;;;;;;14.80;8.85;;;;;;;9.43;44.32;100575.84;5092475;28;20090;-58
2023/03/18 05:55:22;;;;;;;13.07;8.00;;;;;;;9.50;44.17;100576.66;5094594;28;20043;-59
2023/03/18 05:57:47;;;;;;;13.90;7.63;;;;;;;9.63;43.91;100584.31;5094426;28;20051;-58
2023/03/18 06:00:14;;;;;;;17.85;8.30;;;;;;;9.74;43.83;100581.53;5096482;28;20115;-58
2023/03/18 06:02:40;;;;;;;17.70;8.38;;;;;;;9.90;43.55;100579.53;5095477;28;20134;-58
2023/03/18 06:05:06;;;;;;;16.00;8.07;;;;;;;10.04;43.37;100577.53;5096907;28;20127;-58
2023/03/18 06:07:32;;;;;;;14.98;8.18;;;;;;;10.17;43.09;100574.72;5094442;28;20087;-58
2023/03/18 06:09:57;;;;;;;15.40;8.77;;;;;;;10.27;42.87;100571.09;5083753;28;20483;-56
2023/03/18 06:12:26;;;;;;;17.90;8.02;;;;;;;10.32;42.72;100570.09;5090827;28;20502;-58
2023/03/18 06:14:52;;;;;;;16.30;8.95;;;;;;;10.42;42.58;100568.19;5095046;28;20035;-58
2023/03/18 06:17:19;;;;;;;18.92;8.32;;;;;;;10.50;42.44;100570.69;5096796;28;20435;-58
2023/03/18 06:19:44;;;;;;;16.73;9.13;;;;;;;10.50;42.52;100581.19;5096331;28;20368;-58
2023/03/18 06:22:10;;;;;;;16.15;8.68;;;;;;;10.57;42.41;100591.56;5096290;28;20039;-59
2023/03/18 06:24:36;;;;;;;18.02;10.00;;;;;;;10.68;42.25;100593.09;5094694;28;20085;-58
2023/03/18 06:27:02;;;;;;;15.10;8.02;;;;;;;10.80;41.94;100592.88;5094780;28;20036;-59
2023/03/18 06:29:28;;;;;;;18.95;9.02;;;;;;;10.88;42.04;100595.34;5095829;28;20043;-58
2023/03/18 06:31:54;;;;;;;22.48;11.25;;;;;;;10.89;41.95;100592.72;5096025;28;20111;-58
2023/03/18 06:34:19;;;;;;;20.33;9.07;;;;;;;10.95;41.81;100579.44;5096107;28;20036;-58
2023/03/18 06:36:45;;;;;;;16.88;9.82;;;;;;;11.03;41.70;100587.16;5086325;28;20031;-57
2023/03/18 06:39:11;;;;;;;17.73;9.35;;;;;;;10.99;41.46;100593.38;5085072;28;20044;-57
2023/03/18 06:41:36;;;;;;;16.17;9.57;;;;;;;11.07;41.54;100584.44;5095111;28;20391;-58
2023/03/18 06:44:03;;;;;;;14.95;9.00;;;;;;;11.20;41.31;100595.56;5095025;28;20040;-58
2023/03/18 06:46:29;;;;;;;13.32;8.10;;;;;;;11.35;40.95;100600.53;5066796;28;20029;-58
2023/03/18 06:48:54;;;;;;;17.02;9.30;;;;;;;11.45;40.93;100597.69;5095955;28;20110;-57
2023/03/18 06:51:20;;;;;;;15.70;8.70;;;;;;;11.62;40.89;100610.50;5092220;28;20044;-57
2023/03/18 06:53:46;;;;;;;15.35;9.43;;;;;;;11.60;40.63;100603.47;5093723;28;20093;-57
2023/03/18 06:56:14;;;;;;;11.82;8.32;;;;;;;11.73;40.41;100606.72;5093463;28;20502;-58
2023/03/18 06:58:41;;;;;;;15.93;8.95;;;;;;;11.82;40.46;100609.13;5095105;28;20032;-58
2023/03/18 07:01:07;;;;;;;14.25;8.48;;;;;;;11.85;40.32;100608.25;5093042;28;20499;-58
2023/03/18 07:03:33;;;;;;;17.60;8.88;;;;;;;11.81;40.37;100606.53;5093347;28;20119;-57
2023/03/18 07:05:59;;;;;;;18.45;8.93;;;;;;;11.87;40.24;100606.41;5083089;28;20043;-57
2023/03/18 07:08:25;;;;;;;15.18;7.72;;;;;;;11.99;40.07;100605.25;5090892;28;20063;-58
2023/03/18 07:10:52;;;;;;;14.32;8.55;;;;;;;12.10;39.93;100603.25;5095292;28;20063;-59
2023/03/18 07:13:18;;;;;;;16.15;8.73;;;;;;;12.15;39.74;100605.75;5095286;28;20115;-59
2023/03/18 07:15:44;;;;;;;14.75;7.75;;;;;;;12.20;39.80;100606.50;5095525;28;20059;-59
2023/03/18 07:18:10;;;;;;;17.15;9.15;;;;;;;12.25;39.61;100597.59;5094448;28;20103;-57
2023/03/18 07:20:36;;;;;;;14.52;8.35;;;;;;;12.37;39.63;100604.34;5094173;28;20036;-57
2023/03/18 07:23:02;;;;;;;15.88;9.07;;;;;;;12.44;39.26;100603.25;5095192;28;20554;-57
2023/03/18 07:25:29;;;;;;;16.05;9.38;;;;;;;12.49;39.35;100606.66;5094017;28;20126;-59
2023/03/18 07:27:55;;;;;;;16.70;8.90;;;;;;;12.61;39.27;100601.94;5093318;28;20127;-56
2023/03/18 07:30:21;;;;;;;15.60;8.50;;;;;;;12.63;38.73;100603.63;5090601;28;20116;-58
2023/03/18 07:32:48;;;;;;;13.32;7.95;;;;;;;12.73;38.79;100591.09;5086231;28;20032;-57
2023/03/18 07:35:14;;;;;;;16.35;8.90;;;;;;;12.88;38.64;100598.56;5085434;28;20032;-59
2023/03/18 07:37:40;;;;;;;15.70;8.63;;;;;;;13.01;38.58;100596.47;5093293;28;20104;-58
2023/03/18 07:40:08;;;;;;;14.25;8.43;;;;;;;13.14;38.41;100589.06;5093080;28;20048;-59
2023/03/18 07:42:33;;;;;;;13.13;8.30;;;;;;;13.25;38.29;100592.28;5092769;28;20032;-58
2023/03/18 07:44:59;;;;;;;12.10;7.93;;;;;;;13.40;38.07;100593.59;5094331;28;20036;-58
2023/03/18 07:47:24;;;;;;;13.55;8.23;;;;;;;13.44;37.98;100585.53;5093753;28;20079;-58
2023/03/18 07:49:50;;;;;;;17.63;8.60;;;;;;;13.49;37.85;100586.28;5072625;28;20058;-59
2023/03/18 07:52:17;;;;;;;13.95;8.70;;;;;;;13.51;37.82;100589.72;5092957;28;20115;-58
2023/03/18 07:54:43;;;;;;;15.55;8.65;;;;;;;13.71;37.39;100596.16;5093612;28;20032;-59
2023/03/18 07:57:09;;;;;;;13.13;7.63;;;;;;;13.90;37.37;100585.91;5094932;28;20055;-58
2023/03/18 07:59:36;;;;;;;19.95;11.25;;;;;;;14.05;37.12;100586.28;5093066;28;20040;-58
2023/03/18 08:02:03;;;;;;;20.85;11.18;;;;;;;14.15;37.10;100585.97;5083796;28;20066;-59
2023/03/18 08:04:30;;;;;;;18.67;9.68;;;;;;;14.31;36.81;100576.59;5091196;28;20055;-58
2023/03/18 08:06:56;;;;;;;21.15;11.60;;;;;;;14.48;36.57;100578.66;5094259;28;20092;-58
2023/03/18 08:09:23;;;;;;;17.08;9.40;;;;;;;14.49;36.68;100585.72;5094192;28;20028;-58
2023/03/18 08:11:48;;;;;;;14.25;8.70;;;;;;;14.52;36.63;100583.84;5094385;28;20044;-58
2023/03/18 08:14:14;;;;;;;16.92;9.73;;;;;;;14.59;36.49;100586.25;5089999;28;20024;-58
2023/03/18 08:16:39;;;;;;;15.43;9.10;;;;;;;14.73;36.40;100584.88;5092671;28;20032;-58
2023/03/18 08:19:05;;;;;;;18.77;9.25;;;;;;;14.84;36.21;100587.13;5091891;28;20032;-58
2023/03/18 08:21:30;;;;;;;17.35;9.65;;;;;;;14.92;36.06;100579.78;5094089;28;20044;-59
2023/03/18 08:23:56;;;;;;;15.45;8.90;;;;;;;14.95;35.88;100576.16;5069354;28;20028;-57
2023/03/18 08:26:22;;;;;;;15.93;8.73;;;;;;;15.11;35.71;100579.94;5089895;28;20024;-58
2023/03/18 08:28:48;;;;;;;14.48;8.07;;;;;;;15.08;35.45;100572.16;5068159;28;20047;-57
2023/03/18 08:31:14;;;;;;;14.40;9.23;;;;;;;15.18;35.48;100573.50;5080216;28;20035;-60
2023/03/18 08:33:40;;;;;;;13.15;8.35;;;;;;;15.06;35.34;100570.47;5076351;28;20037;-57
2023/03/18 08:36:07;;;;;;;15.82;8.65;;;;;;;15.26;35.27;100562.63;5092114;28;20036;-58
2023/03/18 08:38:33;;;;;;;17.92;8.80;;;;;;;15.28;35.23;100552.88;5092245;28;20044;-58
2023/03/18 08:40:59;;;;;;;18.58;9.23;;;;;;;15.32;35.02;100557.13;5092495;28;20059;-58
2023/03/18 08:43:25;;;;;;;18.15;10.30;;;;;;;15.41;34.66;100556.75;5094953;28;20427;-58
2023/03/18 08:45:55;;;;;;;15.85;10.00;;;;;;;15.38;33.81;100554.22;5092202;28;20515;-58
2023/03/18 08:48:22;;;;;;;15.45;9.23;;;;;;;15.65;34.42;100560.25;5091626;28;20032;-58
2023/03/18 08:50:48;;;;;;;14.85;8.65;;;;;;;15.85;34.33;100556.81;5093327;28;20055;-58
2023/03/18 08:53:14;;;;;;;14.40;8.48;;;;;;;16.04;34.02;100556.94;5093397;28;20048;-58
2023/03/18 08:55:40;;;;;;;13.82;7.80;;;;;;;16.24;33.79;100558.75;5088607;28;20027;-58
2023/03/18 08:58:07;;;;;;;13.07;7.75;;;;;;;16.40;33.04;100554.53;5080972;28;20038;-58
2023/03/18 09:00:38;;;;;;;12.50;7.25;;;;;;;16.63;32.83;100557.94;5087624;28;20043;-58
2023/03/18 09:03:04;;;;;;;12.07;7.40;;;;;;;16.82;32.85;100553.59;5092468;28;20056;-58
2023/03/18 09:05:31;;;;;;;15.02;9.02;;;;;;;17.07;32.46;100544.50;5090993;28;20036;-53
2023/03/18 09:07:57;;;;;;;16.85;8.18;;;;;;;17.18;32.29;100543.09;5081652;28;20028;-55
2023/03/18 09:10:24;;;;;;;14.40;8.48;;;;;;;17.23;32.13;100542.88;5093126;28;20125;-54
2023/03/18 09:12:49;;;;;;;14.55;8.05;;;;;;;17.31;31.86;100526.56;5091779;28;20032;-55
2023/03/18 09:15:19;;;;;;;16.00;9.00;;;;;;;17.23;32.24;100521.63;5093618;28;20046;-53
2023/03/18 09:17:44;;;;;;;14.88;8.50;;;;;;;17.09;32.40;100516.97;5093326;28;20040;-54
2023/03/18 09:20:12;;;;;;;19.13;9.80;;;;;;;16.85;32.65;100523.41;5090466;28;20035;-56
2023/03/18 09:22:40;;;;;;;15.00;8.57;;;;;;;16.68;32.70;100511.72;5092525;28;20036;-55
2023/03/18 09:25:07;;;;;;;15.35;9.32;;;;;;;16.50;32.69;100513.38;5087638;28;21416;-57
2023/03/18 09:27:33;;;;;;;15.60;9.02;;;;;;;16.48;32.85;100512.63;5090584;28;20066;-54
2023/03/18 09:29:58;;;;;;;15.38;9.18;;;;;;;16.55;32.89;100517.63;5090922;28;20121;-56
2023/03/18 09:32:24;;;;;;;14.65;9.52;;;;;;;16.69;32.81;100517.91;5090831;28;20032;-56
2023/03/18 09:34:50;;;;;;;15.57;7.93;;;;;;;16.86;32.92;100525.97;5090372;28;20070;-55
2023/03/18 09:37:17;;;;;;;14.57;8.15;;;;;;;16.94;32.80;100520.31;5092909;28;20560;-55
2023/03/18 09:39:43;;;;;;;14.25;8.23;;;;;;;16.89;32.66;100525.84;5093211;28;20048;-54
2023/03/18 09:42:56;;;;;;;13.70;7.95;;;;;;;17.20;31.53;100535.94;5091598;28;20040;-55
2023/03/18 09:45:37;;;;;;;14.27;8.07;;;;;;;17.41;31.66;100530.53;5030398;28;20142;-56
2023/03/18 09:48:21;;;;;;;12.75;7.75;;;;;;;17.54;31.82;100528.16;5024937;28;20037;-55
2023/03/18 09:51:23;;;;;;;18.23;10.30;;;;;;;17.73;30.76;100523.66;5064810;28;20048;-56
2023/03/18 09:53:59;;;;;;;17.73;10.45;;;;;;;17.86;30.49;100510.66;5093337;28;20024;-56
2023/03/18 09:56:33;;;;;;;15.55;8.15;;;;;;;18.02;30.83;100524.91;5093997;28;20055;-56
2023/03/18 09:59:22;;;;;;;12.85;7.68;;;;;;;17.96;30.29;100520.75;5093450;28;20097;-56
2023/03/18 10:01:53;;;;;;;14.02;8.30;;;;;;;17.88;30.82;100528.25;5093555;28;20073;-56
2023/03/18 10:04:41;;;;;;;11.45;7.97;;;;;;;17.93;30.97;100520.91;5093527;28;20039;-56
2023/03/18 10:07:20;;;;;;;10.77;7.47;;;;;;;17.84;30.39;100534.66;5093392;28;20119;-57
2023/03/18 10:09:58;;;;;;;12.55;7.93;;;;;;;17.82;30.77;100533.88;5093460;28;20056;-56
2023/03/18 10:12:34;;;;;;;17.15;9.07;;;;;;;17.65;30.80;100531.16;5093279;28;20055;-56
2023/03/18 10:15:16;;;;;;;12.80;8.80;;;;;;;17.57;30.74;100530.66;5092229;28;20028;-56
2023/03/18 10:17:55;;;;;;;13.30;8.85;;;;;;;17.60;31.58;100531.38;5092150;28;20036;-57
2023/03/18 10:20:45;;;;;;;12.77;7.93;;;;;;;17.48;31.10;100522.19;5091964;28;20028;-56
2023/03/18 10:23:31;;;;;;;18.73;10.60;;;;;;;17.45;31.05;100514.38;5093411;28;20036;-56
2023/03/18 10:26:04;;;;;;;18.40;10.18;;;;;;;17.45;31.86;100510.84;5091980;28;20032;-57
2023/03/18 10:28:44;;;;;;;17.10;8.82;;;;;;;17.70;31.17;100508.72;5091928;28;20032;-55
2023/03/18 10:31:13;;;;;;;13.98;8.18;;;;;;;17.96;31.42;100510.13;5092870;28;20040;-57
2023/03/18 10:34:00;;;;;;;13.93;8.55;;;;;;;18.29;30.18;100516.47;5093312;28;20031;-55
2023/03/18 10:36:34;;;;;;;15.52;9.00;;;;;;;18.41;30.56;100505.19;5093163;28;20540;-55
2023/03/18 10:39:02;;;;;;;14.48;8.02;;;;;;;18.58;30.25;100499.84;5091490;28;20128;-55
2023/03/18 10:41:37;;;;;;;14.57;8.35;;;;;;;18.60;29.94;100489.13;5092343;28;20467;-55
2023/03/18 10:44:17;;;;;;;14.52;8.82;;;;;;;18.80;29.69;100482.78;5096618;28;20475;-55
2023/03/18 10:46:45;;;;;;;14.95;9.07;;;;;;;18.87;30.29;100493.00;5096799;28;20108;-56
2023/03/18 10:49:25;;;;;;;12.75;8.18;;;;;;;18.85;29.35;100488.69;5096893;28;20036;-56
2023/03/18 10:52:05;;;;;;;11.75;7.60;;;;;;;19.22;29.42;100487.53;5096510;28;20391;-57
2023/03/18 10:54:49;;;;;;;13.05;8.25;;;;;;;19.34;29.22;100484.16;5096992;28;20032;-56
2023/03/18 10:57:16;;;;;;;20.85;9.15;;;;;;;19.55;29.78;100483.91;5079330;28;20074;-56
2023/03/18 10:59:46;;;;;;;12.88;7.75;;;;;;;19.47;29.68;100484.38;5095163;28;20039;-56
2023/03/18 11:02:35;;;;;;;13.38;7.70;;;;;;;19.33;29.20;100470.94;5095177;28;20036;-57
2023/03/18 11:05:22;;;;;;;14.02;8.55;;;;;;;19.22;28.82;100476.88;5096466;28;20063;-56
2023/03/18 11:08:33;;;;;;;14.93;8.15;;;;;;;19.45;28.94;100479.09;5096404;28;20485;-56
2023/03/18 11:11:21;;;;;;;13.68;7.03;;;;;;;19.52;29.86;100476.09;5080845;28;20043;-57
2023/03/18 11:13:52;;;;;;;15.75;9.57;;;;;;;19.67;28.88;100477.91;5094618;28;20036;-56
2023/03/18 11:16:32;;;;;;;15.52;7.97;;;;;;;19.76;29.04;100488.03;5095035;28;20039;-55
2023/03/18 11:18:58;;;;;;;14.57;8.63;;;;;;;19.83;29.36;100483.22;5095775;28;20136;-56
2023/03/18 11:21:25;;;;;;;16.50;8.05;;;;;;;19.80;29.75;100478.06;5096184;28;20424;-55
2023/03/18 11:24:09;;;;;;;17.33;10.30;;;;;;;19.80;29.18;100480.72;5095936;28;20028;-60
2023/03/18 11:26:54;;;;;;;16.42;9.40;;;;;;;19.69;28.88;100484.00;5095943;28;20109;-54
2023/03/18 11:29:34;;;;;;;14.68;9.30;;;;;;;19.74;29.29;100484.59;5095883;28;20128;-55